Hovedside
METAR-TAF:

METAR-TAF

Lufthavner :

Matsuyama, Japan

breddegrad: 33-49N, lengdegrad: 132-42E, høyde over havet: 4 m

Gjeldene værobservasjon

Denne rapporten ble laget for 33 minutter siden, klokken 01:00 UTC
Vind 14 kt fra Nord-nordøst
Temperatur 7°C
Luftfuktighet 87%
Trykk 1023 hPa
Sikt 10 km eller mer
Få skyer i en høyde av 500 ft
Spredte skyer i en høyde av 2500 ft
Brutte skyer i en høyde av 8000 ft

METAR: RJOM 230100Z 02014KT 9999 FEW005 SCT025 BKN080 07/05 Q1023

Tid: 10:33 (01:33 UTC)

Varsel

Denne rapporten ble laget for 2 timer og 24 minutter siden, klokken 23:09 UTC
Varsel gyldig fra 23. klokken 00 UTC til 24. klokken 06 UTC
Vind 16 kt fra Nord-nordøst
Sikt: 9000 m
Få skyer i en høyde av 800 ft
Spredte skyer i en høyde av 1500 ft
Brutte skyer i en høyde av 4000 ft
lett regn,

TAF: RJOM 222309Z 2300/2406 02016KT 9000 -RA FEW008 SCT015 BKN040

Værobservasjoner og værvarsel for over 4000 flyplasser (METAR- og TAF-rapporter).

Tilgjengelige stasjoner er representert av de røde og gule prikkene på kartet.

Hold musepekeren over prikken for å se navnet på stasjonen.

Klikk så for å se værobservasjoner og -varsler.

For å forandre kartet kan du klikke på den grønne knappen med svart kryss for å zoome inn, på den grønne knappen med strek for å zoome ut, eller på de grønne pilene for å se tilstøtende kart.


METAR-TAF: